Time;durP1;ratioP1;P1;durP2;ratioP2;P2;SDS_P1;SDS_P2;PMS_P1;PMS_P2;Temp;Humidity;BMP_temperature;BMP_pressure;BME280_temperature;BME280_humidity;BME280_pressure;Samples;Min_cycle;Max_cycle;Signal;HPM_P1;HPM_P2
2021/11/14 05:02:29;;;;;;;59.90;32.25;;;;;;;2.47;100.00;96033.56;5090261;23;20055;-75
2021/11/14 05:04:55;;;;;;;67.70;32.30;;;;;;;2.73;100.00;96047.28;4971139;28;20027;-76
2021/11/14 05:07:20;;;;;;;40.17;25.23;;;;;;;1.96;100.00;96001.78;4972035;28;20654;-77
2021/11/14 05:09:46;;;;;;;41.58;24.08;;;;;;;1.52;100.00;95915.13;4954524;28;20026;-75
2021/11/14 05:12:11;;;;;;;37.35;20.75;;;;;;;1.42;100.00;95842.59;4953634;28;20403;-75
2021/11/14 05:14:37;;;;;;;35.30;21.15;;;;;;;1.07;100.00;95783.53;4970939;28;20034;-75
2021/11/14 05:17:02;;;;;;;30.85;20.60;;;;;;;1.10;100.00;95765.50;4952888;28;20042;-76
2021/11/14 05:19:28;;;;;;;28.98;18.05;;;;;;;1.09;100.00;95740.91;4970216;28;20034;-76
2021/11/14 05:21:53;;;;;;;31.10;19.63;;;;;;;1.16;100.00;95713.28;4969118;28;20030;-75
2021/11/14 05:24:19;;;;;;;25.25;17.70;;;;;;;1.20;100.00;95699.44;4970019;28;20035;-76
2021/11/14 05:26:46;;;;;;;27.15;18.25;;;;;;;1.14;100.00;95687.91;4969061;28;20062;-76
2021/11/14 05:29:11;;;;;;;25.38;17.88;;;;;;;1.00;100.00;95668.34;4969768;28;20090;-76
2021/11/14 05:31:36;;;;;;;38.63;22.30;;;;;;;1.25;100.00;95631.13;4971705;28;20031;-76
2021/11/14 05:34:02;;;;;;;36.55;22.48;;;;;;;1.29;100.00;95642.75;4969234;28;20035;-75
2021/11/14 05:36:28;;;;;;;30.60;17.98;;;;;;;1.26;100.00;95628.44;4970223;28;20034;-76
2021/11/14 05:38:53;;;;;;;30.27;19.05;;;;;;;1.34;100.00;95615.22;4951896;28;20092;-73
2021/11/14 05:41:19;;;;;;;29.08;20.90;;;;;;;1.34;100.00;95605.84;4953864;28;20523;-73
2021/11/14 05:43:44;;;;;;;31.73;21.77;;;;;;;1.24;100.00;95606.53;4968256;28;20035;-74
2021/11/14 05:46:10;;;;;;;41.63;26.40;;;;;;;1.29;100.00;95630.81;4954192;28;20030;-75
2021/11/14 05:48:35;;;;;;;36.63;24.08;;;;;;;1.44;100.00;95636.69;4952826;28;20035;-74
2021/11/14 05:51:01;;;;;;;37.45;23.48;;;;;;;1.67;100.00;95641.09;4969474;28;20050;-75
2021/11/14 05:53:26;;;;;;;36.45;24.65;;;;;;;1.81;100.00;95629.97;4969961;28;20022;-76
2021/11/14 05:55:52;;;;;;;34.58;23.20;;;;;;;1.81;100.00;95612.09;4933529;29;20503;-76
2021/11/14 05:58:22;;;;;;;40.95;26.27;;;;;;;1.92;100.00;95596.91;4958214;28;20027;-76
2021/11/14 06:05:47;;;;;;;39.17;23.83;;;;;;;2.35;100.00;95574.34;4967877;28;20442;-74
2021/11/14 06:08:12;;;;;;;34.53;23.98;;;;;;;2.42;100.00;95561.06;4967116;28;20436;-74
2021/11/14 06:10:38;;;;;;;36.10;24.48;;;;;;;2.56;100.00;95553.25;4974454;28;20042;-74
2021/11/14 06:13:03;;;;;;;34.65;22.73;;;;;;;2.62;100.00;95549.44;4966313;28;20460;-74
2021/11/14 06:15:29;;;;;;;34.95;23.52;;;;;;;2.78;100.00;95547.44;4974467;28;20027;-75
2021/11/14 06:17:54;;;;;;;43.90;26.70;;;;;;;2.79;100.00;95561.88;4958552;28;20038;-75
2021/11/14 06:20:22;;;;;;;38.33;25.00;;;;;;;2.76;100.00;95562.06;4951489;28;20038;-74
2021/11/14 06:22:47;;;;;;;44.40;28.05;;;;;;;2.85;100.00;95552.94;4968684;28;20436;-74
2021/11/14 06:25:13;;;;;;;35.72;24.05;;;;;;;3.08;100.00;95540.13;4967661;28;20031;-75
2021/11/14 06:27:39;;;;;;;38.95;24.85;;;;;;;3.30;100.00;95511.25;4947654;28;20038;-75
2021/11/14 06:30:06;;;;;;;34.60;24.98;;;;;;;3.45;100.00;95471.72;4981627;28;20033;-75
2021/11/14 06:32:31;;;;;;;35.88;24.67;;;;;;;3.47;100.00;95454.47;4966667;28;20416;-75
2021/11/14 06:34:59;;;;;;;35.38;24.92;;;;;;;3.56;100.00;95447.88;4949967;28;20065;-75
2021/11/14 06:37:25;;;;;;;41.63;26.27;;;;;;;3.59;100.00;95442.53;4948956;28;20711;-74
2021/11/14 06:39:50;;;;;;;46.88;31.45;;;;;;;3.60;100.00;95457.75;4947220;28;20035;-74
2021/11/14 06:42:16;;;;;;;40.55;30.08;;;;;;;3.37;100.00;95463.78;4967459;28;20593;-74
2021/11/14 06:44:41;;;;;;;43.40;30.63;;;;;;;3.46;100.00;95455.44;4968125;28;20030;-74
2021/11/14 06:47:07;;;;;;;42.92;29.58;;;;;;;3.61;100.00;95461.94;4968075;28;20033;-74
2021/11/14 06:49:32;;;;;;;41.08;27.42;;;;;;;3.62;100.00;95452.53;4966012;28;20484;-74
2021/11/14 06:51:58;;;;;;;29.55;22.05;;;;;;;3.52;100.00;95457.53;4980874;28;20038;-74
2021/11/14 06:54:23;;;;;;;35.00;25.00;;;;;;;3.42;100.00;95441.22;4969844;28;20077;-74
2021/11/14 06:56:49;;;;;;;34.15;24.23;;;;;;;3.56;100.00;95440.97;4947312;28;20023;-74
2021/11/14 06:59:14;;;;;;;32.55;24.52;;;;;;;3.55;100.00;95426.56;4932457;28;20034;-75
2021/11/14 07:01:39;;;;;;;35.80;25.52;;;;;;;3.57;100.00;95440.06;4964615;28;20050;-73
2021/11/14 07:04:05;;;;;;;37.20;25.35;;;;;;;3.51;100.00;95425.16;4949114;28;20031;-74
2021/11/14 07:06:30;;;;;;;36.90;27.42;;;;;;;3.59;100.00;95433.09;4931732;28;20030;-74
2021/11/14 07:08:56;;;;;;;127.60;106.40;;;;;;;3.91;100.00;95425.50;4962507;28;20083;-75
2021/11/14 07:11:21;;;;;;;45.88;31.80;;;;;;;3.75;100.00;95406.31;4965372;28;20038;-74
2021/11/14 07:13:47;;;;;;;45.92;32.97;;;;;;;3.89;100.00;95417.09;4948805;28;20039;-74
2021/11/14 07:16:13;;;;;;;35.72;27.63;;;;;;;3.87;100.00;95405.34;4951375;28;20181;-74
2021/11/14 07:18:39;;;;;;;39.00;27.77;;;;;;;3.80;100.00;95404.19;4965180;28;20109;-74
2021/11/14 07:21:06;;;;;;;42.20;28.00;;;;;;;4.00;100.00;95411.16;4970121;28;20061;-74
2021/11/14 07:23:32;;;;;;;45.72;31.30;;;;;;;4.11;100.00;95414.50;4966504;28;20034;-74
2021/11/14 07:25:57;;;;;;;56.15;35.45;;;;;;;4.00;100.00;95404.28;4965611;28;20023;-74
2021/11/14 07:28:23;;;;;;;51.55;35.30;;;;;;;4.04;100.00;95410.00;4951278;28;20562;-75
2021/11/14 07:30:48;;;;;;;53.20;34.88;;;;;;;4.21;100.00;95420.53;4965350;28;20105;-76
2021/11/14 07:33:13;;;;;;;51.47;36.10;;;;;;;4.23;100.00;95405.88;4951775;28;20042;-76
2021/11/14 07:35:39;;;;;;;49.88;34.90;;;;;;;4.38;100.00;95410.69;4949889;28;20023;-75
2021/11/14 07:38:04;;;;;;;52.47;37.05;;;;;;;4.34;100.00;95397.31;4967506;28;20030;-76
2021/11/14 07:40:30;;;;;;;56.13;37.83;;;;;;;4.27;100.00;95400.50;4965622;28;20023;-76
2021/11/14 07:42:55;;;;;;;60.50;40.25;;;;;;;4.29;100.00;95406.31;4966630;28;20041;-76
2021/11/14 07:45:22;;;;;;;52.28;38.47;;;;;;;4.51;100.00;95403.66;4966922;28;20030;-76
2021/11/14 07:47:47;;;;;;;51.47;38.25;;;;;;;4.42;100.00;95392.41;4966293;28;20038;-76
2021/11/14 07:50:13;;;;;;;49.95;37.22;;;;;;;4.60;100.00;95390.91;4951312;28;20600;-76
2021/11/14 07:52:39;;;;;;;50.63;35.53;;;;;;;4.78;100.00;95381.72;4965943;28;20061;-76
2021/11/14 07:55:07;;;;;;;51.20;37.10;;;;;;;4.70;100.00;95378.16;4950275;28;20122;-76
2021/11/14 07:57:33;;;;;;;48.33;35.47;;;;;;;4.59;100.00;95381.59;4965922;28;20035;-76
2021/11/14 07:59:58;;;;;;;49.67;35.53;;;;;;;4.51;100.00;95373.72;4951025;28;20042;-76
2021/11/14 08:02:24;;;;;;;48.67;35.60;;;;;;;4.53;100.00;95394.09;4966056;28;20046;-76
2021/11/14 08:04:50;;;;;;;46.40;34.70;;;;;;;4.78;100.00;95381.72;4969024;28;20031;-76
2021/11/14 08:07:15;;;;;;;48.53;35.85;;;;;;;4.83;100.00;95375.41;4970411;28;20019;-76
2021/11/14 08:09:41;;;;;;;50.60;36.45;;;;;;;4.75;100.00;95373.47;4967993;28;20062;-76
2021/11/14 08:12:07;;;;;;;50.17;35.92;;;;;;;4.89;100.00;95356.94;4954802;28;20545;-76
2021/11/14 08:14:32;;;;;;;45.45;34.70;;;;;;;5.14;100.00;95341.13;4969962;28;20019;-76
2021/11/14 08:16:58;;;;;;;45.47;33.90;;;;;;;5.07;100.00;95324.66;4955086;28;20027;-76
2021/11/14 08:19:23;;;;;;;45.95;34.63;;;;;;;5.17;100.00;95344.25;4952407;28;20034;-76
2021/11/14 08:21:49;;;;;;;49.08;35.03;;;;;;;4.76;100.00;95285.31;4954628;28;20031;-75
2021/11/14 08:24:14;;;;;;;48.83;35.50;;;;;;;5.20;100.00;95344.00;4969183;28;20027;-76
2021/11/14 08:26:40;;;;;;;47.45;35.13;;;;;;;5.21;100.00;95337.94;4969974;28;20053;-75
2021/11/14 08:29:05;;;;;;;51.53;35.92;;;;;;;5.06;100.00;95336.66;4953405;28;20031;-75
2021/11/14 08:31:31;;;;;;;54.45;36.05;;;;;;;5.12;100.00;95341.28;4953223;28;20034;-75
2021/11/14 08:33:56;;;;;;;55.80;36.90;;;;;;;5.27;100.00;95323.75;4986496;28;20463;-75
2021/11/14 08:36:22;;;;;;;59.95;38.28;;;;;;;5.53;100.00;95317.22;4952256;28;20019;-75
2021/11/14 08:38:47;;;;;;;53.35;37.22;;;;;;;5.77;100.00;95311.75;4971077;28;20035;-75
2021/11/14 08:41:13;;;;;;;55.05;36.72;;;;;;;5.64;100.00;95304.28;4953084;28;20031;-76
2021/11/14 08:43:39;;;;;;;61.55;39.70;;;;;;;5.60;100.00;95297.78;4970268;28;20408;-75
2021/11/14 08:46:08;;;;;;;56.20;38.33;;;;;;;5.68;100.00;95302.28;4953682;28;20031;-75
2021/11/14 08:48:33;;;;;;;59.83;38.97;;;;;;;5.69;100.00;95279.00;4969717;28;20050;-75
2021/11/14 08:50:59;;;;;;;56.10;35.88;;;;;;;5.97;100.00;95263.78;4970170;28;20105;-75
2021/11/14 08:53:24;;;;;;;58.53;38.55;;;;;;;5.99;100.00;95267.84;4969726;28;20424;-75
2021/11/14 08:55:54;;;;;;;52.58;37.20;;;;;;;5.94;100.00;95252.00;4971738;28;20022;-75
2021/11/14 08:58:19;;;;;;;57.17;37.42;;;;;;;6.16;100.00;95250.94;4969162;28;20389;-75
2021/11/14 09:00:45;;;;;;;54.60;36.38;;;;;;;6.25;100.00;95244.97;4971145;28;20062;-75
2021/11/14 09:03:10;;;;;;;59.78;38.58;;;;;;;6.38;100.00;95242.94;4968879;28;20019;-75
2021/11/14 09:05:36;;;;;;;53.55;36.40;;;;;;;6.30;100.00;95233.31;4971152;28;20419;-75
2021/11/14 09:08:03;;;;;;;59.00;35.97;;;;;;;6.43;100.00;95242.50;4969138;28;20042;-75
2021/11/14 09:10:29;;;;;;;55.70;34.28;;;;;;;6.58;99.79;95247.06;4953336;28;20027;-75
2021/11/14 09:12:54;;;;;;;50.17;34.60;;;;;;;6.84;98.04;95237.78;4971125;28;20033;-75
2021/11/14 09:15:20;;;;;;;48.22;33.08;;;;;;;7.18;97.48;95232.91;4967101;28;20476;-75
2021/11/14 09:17:45;;;;;;;44.40;30.85;;;;;;;7.07;96.15;95224.53;4968985;28;20038;-75
2021/11/14 09:20:11;;;;;;;45.25;31.13;;;;;;;7.05;97.11;95229.84;4967605;28;20034;-75
2021/11/14 09:22:37;;;;;;;43.17;32.08;;;;;;;7.35;96.01;95226.19;4970354;28;20027;-75
2021/11/14 09:25:04;;;;;;;48.58;33.13;;;;;;;7.48;95.33;95224.03;4951433;28;20066;-75
2021/11/14 09:27:30;;;;;;;45.40;32.53;;;;;;;7.61;95.84;95221.94;4967034;28;20038;-76
2021/11/14 09:29:55;;;;;;;44.53;30.95;;;;;;;7.49;95.19;95217.94;4970052;28;20539;-74
2021/11/14 09:32:21;;;;;;;46.88;32.05;;;;;;;7.93;93.82;95206.75;4969274;28;20031;-74
2021/11/14 09:34:46;;;;;;;48.78;33.00;;;;;;;7.87;93.86;95202.22;4968897;28;20027;-75
2021/11/14 09:37:12;;;;;;;45.45;31.90;;;;;;;8.31;92.31;95189.38;4968050;28;20566;-75
2021/11/14 09:39:37;;;;;;;42.97;30.92;;;;;;;8.43;90.99;95183.81;4970300;28;20488;-76
2021/11/14 09:42:03;;;;;;;39.92;30.13;;;;;;;8.16;91.49;95177.94;4967848;28;20030;-76
2021/11/14 09:44:29;;;;;;;40.00;30.83;;;;;;;8.53;90.66;95191.44;4952661;28;20519;-76
2021/11/14 09:46:56;;;;;;;41.40;29.52;;;;;;;8.39;90.67;95184.25;4951831;28;20125;-75
2021/11/14 09:49:23;;;;;;;37.72;29.13;;;;;;;8.17;90.21;95176.97;4952143;28;20555;-76
2021/11/14 09:51:50;;;;;;;36.58;27.95;;;;;;;8.38;89.96;95180.06;4953372;28;20038;-76
2021/11/14 09:54:16;;;;;;;35.83;26.58;;;;;;;8.19;87.50;95180.19;4951024;28;20054;-76
2021/11/14 09:56:41;;;;;;;32.03;25.42;;;;;;;8.70;86.77;95180.22;4952709;28;20121;-75
2021/11/14 09:59:08;;;;;;;52.63;27.08;;;;;;;9.39;84.83;95164.53;4967392;28;20052;-76
2021/11/14 10:01:34;;;;;;;45.85;27.58;;;;;;;9.43;84.09;95173.59;4953106;28;20061;-76
2021/11/14 10:04:00;;;;;;;39.05;28.75;;;;;;;9.97;81.70;95161.03;4967490;28;20468;-76
2021/11/14 10:06:26;;;;;;;34.58;26.13;;;;;;;10.05;80.25;95154.06;4951720;28;20066;-76
2021/11/14 10:08:52;;;;;;;34.55;25.55;;;;;;;10.01;80.64;95154.59;4968457;28;20059;-76
2021/11/14 10:11:18;;;;;;;32.03;24.60;;;;;;;10.07;80.35;95157.34;4967189;28;20086;-76
2021/11/14 10:13:46;;;;;;;34.30;26.52;;;;;;;10.86;79.04;95142.78;4968704;28;20030;-76
2021/11/14 10:16:14;;;;;;;33.00;24.45;;;;;;;11.04;74.62;95140.78;4950151;28;20042;-75
2021/11/14 10:18:40;;;;;;;31.08;24.63;;;;;;;11.11;74.11;95133.94;4968286;28;20598;-76
2021/11/14 10:21:06;;;;;;;32.50;24.20;;;;;;;9.79;80.10;95134.53;4950528;28;20026;-76
2021/11/14 10:23:32;;;;;;;28.55;24.35;;;;;;;10.05;81.91;95123.03;4967710;28;20031;-75
2021/11/14 10:26:02;;;;;;;30.25;23.08;;;;;;;10.79;76.79;95129.69;4951434;28;20321;-76
2021/11/14 10:28:30;;;;;;;31.75;24.70;;;;;;;10.66;78.89;95119.03;4967271;28;20026;-76
2021/11/14 10:30:56;;;;;;;27.13;23.58;;;;;;;11.20;76.14;95124.34;4968322;28;20027;-76
2021/11/14 10:33:23;;;;;;;28.50;23.67;;;;;;;10.26;78.62;95119.97;4949537;28;20100;-76
2021/11/14 10:35:50;;;;;;;29.55;23.55;;;;;;;10.52;78.19;95125.75;4951979;28;20109;-75
2021/11/14 10:38:18;;;;;;;32.50;23.95;;;;;;;10.82;76.99;95123.38;4950641;28;20366;-76
2021/11/14 10:40:48;;;;;;;26.50;21.48;;;;;;;10.61;77.38;95117.94;4951760;28;20041;-76
2021/11/14 10:43:17;;;;;;;30.67;23.95;;;;;;;10.69;76.82;95126.47;4952088;28;20511;-76
2021/11/14 10:45:42;;;;;;;28.58;23.30;;;;;;;10.48;77.69;95118.47;4950919;28;20039;-76
2021/11/14 10:48:16;;;;;;;30.05;24.30;;;;;;;10.53;77.52;95122.16;4951971;28;20101;-76
2021/11/14 10:50:43;;;;;;;31.92;23.77;;;;;;;10.77;78.12;95113.50;4965394;28;20121;-75
2021/11/14 10:53:16;;;;;;;42.15;23.63;;;;;;;10.38;78.09;95105.69;4951719;28;20045;-75
2021/11/14 10:55:50;;;;;;;29.00;24.08;;;;;;;10.54;77.82;95117.78;4967016;28;20475;-74
2021/11/14 10:58:16;;;;;;;30.88;23.77;;;;;;;10.42;78.10;95107.00;4967608;28;20030;-75
2021/11/14 11:00:44;;;;;;;31.15;22.83;;;;;;;10.76;76.33;95105.91;4935075;28;21111;-74
2021/11/14 11:03:10;;;;;;;30.88;23.75;;;;;;;11.05;76.47;95112.09;4949796;28;20026;-74
2021/11/14 11:05:36;;;;;;;26.67;23.15;;;;;;;10.78;76.82;95104.78;4967279;28;20026;-74
2021/11/14 11:08:10;;;;;;;31.00;24.27;;;;;;;10.53;76.71;95101.44;4965683;28;20523;-75
2021/11/14 11:10:43;;;;;;;28.90;23.15;;;;;;;10.22;78.80;95097.16;4968958;28;20042;-74
2021/11/14 11:13:11;;;;;;;27.55;22.73;;;;;;;10.52;77.09;95092.09;4966248;28;20035;-75
2021/11/14 11:15:47;;;;;;;31.77;23.20;;;;;;;10.27;79.07;95089.72;4966946;28;20023;-74
2021/11/14 11:18:13;;;;;;;30.13;24.00;;;;;;;10.71;77.35;95093.47;4951013;28;20031;-75
2021/11/14 11:20:39;;;;;;;30.45;24.35;;;;;;;10.98;75.47;95079.28;4949751;28;20134;-75
2021/11/14 11:23:07;;;;;;;30.35;24.33;;;;;;;10.58;76.53;95085.41;4951429;28;20036;-75
2021/11/14 11:25:53;;;;;;;30.92;24.20;;;;;;;10.85;75.47;95079.00;4949229;28;20566;-75
2021/11/14 11:28:19;;;;;;;30.80;24.30;;;;;;;10.88;74.69;95078.66;4968849;28;20022;-75
2021/11/14 11:30:56;;;;;;;31.83;24.77;;;;;;;10.30;78.16;95076.44;4967943;28;20038;-74
2021/11/14 11:33:23;;;;;;;30.88;25.67;;;;;;;10.84;75.36;95077.38;4951342;28;20085;-75
2021/11/14 11:35:49;;;;;;;29.67;24.45;;;;;;;11.00;74.81;95078.13;4951069;28;20492;-76
2021/11/14 11:38:14;;;;;;;33.63;26.67;;;;;;;10.83;74.82;95076.56;4948805;28;20033;-75
2021/11/14 11:40:40;;;;;;;33.13;25.95;;;;;;;10.90;75.30;95082.69;4966004;28;20031;-75
2021/11/14 11:43:06;;;;;;;32.20;24.02;;;;;;;10.85;75.15;95077.19;4965653;28;20057;-75
2021/11/14 11:45:40;;;;;;;33.88;26.58;;;;;;;10.87;74.17;95083.03;4945891;29;20039;-75
2021/11/14 11:48:15;;;;;;;29.25;24.23;;;;;;;10.88;75.13;95081.25;4916127;28;20090;-75
2021/11/14 11:50:40;;;;;;;30.25;24.92;;;;;;;11.28;74.48;95081.03;4930512;29;20408;-75
2021/11/14 11:53:06;;;;;;;32.08;25.67;;;;;;;11.26;74.12;95082.19;4948016;29;20031;-75
2021/11/14 11:55:37;;;;;;;32.92;26.35;;;;;;;11.14;74.84;95071.41;4949098;28;20037;-75
2021/11/14 11:58:35;;;;;;;31.83;25.40;;;;;;;11.16;74.55;95072.03;4951302;28;20655;-75
2021/11/14 12:01:01;;;;;;;30.42;23.55;;;;;;;11.05;74.44;95067.22;4965854;28;20043;-75
2021/11/14 12:03:38;;;;;;;35.63;25.52;;;;;;;11.15;75.08;95059.22;4964500;28;20058;-75
2021/11/14 12:06:14;;;;;;;36.42;26.70;;;;;;;10.99;75.37;95058.34;4944359;29;20038;-76
2021/11/14 12:08:43;;;;;;;31.95;24.95;;;;;;;11.13;74.93;95056.81;4944261;28;20042;-76
2021/11/14 12:11:10;;;;;;;31.20;25.17;;;;;;;11.03;74.82;95053.63;4947003;29;20034;-76
2021/11/14 12:13:39;;;;;;;32.28;26.30;;;;;;;10.98;74.88;95074.09;4933512;28;20035;-75
2021/11/14 12:16:04;;;;;;;31.17;22.67;;;;;;;10.74;75.05;95058.66;4965453;28;20623;-75
2021/11/14 12:18:40;;;;;;;32.83;25.15;;;;;;;10.86;76.15;95060.69;4965660;28;20110;-75
2021/11/14 12:21:13;;;;;;;32.97;23.95;;;;;;;10.53;75.24;95060.00;4964475;28;20082;-75
2021/11/14 12:23:39;;;;;;;32.33;25.42;;;;;;;11.30;75.23;95060.91;4945060;29;20054;-75
2021/11/14 12:26:10;;;;;;;33.97;24.80;;;;;;;11.15;75.39;95056.63;4928968;29;20473;-76
2021/11/14 12:28:39;;;;;;;32.20;25.42;;;;;;;11.29;73.27;95051.53;4916195;29;20047;-76
2021/11/14 12:31:09;;;;;;;30.70;24.77;;;;;;;10.89;74.24;95062.13;4912840;29;20082;-75
2021/11/14 12:33:43;;;;;;;30.58;24.42;;;;;;;11.33;73.21;95067.56;4949166;28;20118;-76
2021/11/14 12:36:38;;;;;;;32.08;23.60;;;;;;;11.49;73.15;95067.44;4966580;28;20121;-76
2021/11/14 12:39:10;;;;;;;33.58;24.85;;;;;;;11.67;72.41;95067.13;4957552;28;20132;-75
2021/11/14 12:41:36;;;;;;;33.22;25.23;;;;;;;11.55;72.57;95061.56;4966712;28;20127;-75
2021/11/14 12:44:02;;;;;;;34.45;26.98;;;;;;;11.63;72.34;95057.09;4957107;28;20099;-78
2021/11/14 12:46:27;;;;;;;33.92;26.77;;;;;;;11.72;72.53;95059.69;4946451;29;20028;-75
2021/11/14 12:48:53;;;;;;;32.30;25.15;;;;;;;11.79;72.09;95065.75;4931745;29;20535;-75
2021/11/14 12:51:21;;;;;;;34.53;27.92;;;;;;;11.58;72.58;95053.44;4948800;29;20094;-75
2021/11/14 12:53:50;;;;;;;36.63;27.20;;;;;;;11.81;73.23;95049.06;4953448;28;20031;-76
2021/11/14 12:56:22;;;;;;;33.13;26.77;;;;;;;11.60;73.07;95049.69;4983396;28;20038;-75
2021/11/14 12:58:48;;;;;;;28.75;24.25;;;;;;;11.65;72.43;95056.94;4970318;28;20066;-76
2021/11/14 13:01:13;;;;;;;30.65;25.52;;;;;;;11.51;72.90;95055.91;4967481;28;20035;-75
2021/11/14 13:03:40;;;;;;;29.77;25.52;;;;;;;11.62;72.96;95059.91;4951637;28;20031;-76
2021/11/14 13:06:14;;;;;;;31.10;24.23;;;;;;;11.52;73.32;95056.72;4933232;29;20027;-75
2021/11/14 13:08:41;;;;;;;30.50;23.23;;;;;;;11.33;72.62;95055.41;4948650;29;20028;-75
2021/11/14 13:11:07;;;;;;;29.92;23.85;;;;;;;11.42;72.98;95056.97;4953780;28;20493;-75
2021/11/14 13:13:35;;;;;;;30.65;23.67;;;;;;;11.55;72.07;95057.19;4950247;28;20038;-75
2021/11/14 13:16:08;;;;;;;30.02;24.20;;;;;;;11.61;71.79;95040.13;4953069;28;20114;-75
2021/11/14 13:18:34;;;;;;;31.35;25.02;;;;;;;11.54;72.79;95046.97;4951581;28;20061;-75
2021/11/14 13:21:00;;;;;;;31.45;24.52;;;;;;;11.61;72.44;95050.50;4966089;28;20031;-76
2021/11/14 13:23:26;;;;;;;31.30;24.10;;;;;;;11.67;72.00;95057.56;4932406;29;20070;-77
2021/11/14 13:26:02;;;;;;;29.55;23.13;;;;;;;11.65;71.71;95054.34;4953592;28;20039;-77
2021/11/14 13:28:28;;;;;;;32.15;24.05;;;;;;;11.75;71.95;95049.72;4969830;28;20042;-77
2021/11/14 13:30:53;;;;;;;30.63;24.75;;;;;;;11.80;71.58;95055.22;4950195;28;20023;-77
2021/11/14 13:33:19;;;;;;;30.13;23.60;;;;;;;11.77;71.52;95044.38;4968594;28;20120;-77
2021/11/14 13:35:45;;;;;;;29.25;24.05;;;;;;;11.73;70.92;95050.91;4965438;28;20038;-77
2021/11/14 13:38:11;;;;;;;28.58;23.27;;;;;;;11.68;70.80;95050.59;4968424;28;20023;-77
2021/11/14 13:40:37;;;;;;;24.70;22.08;;;;;;;11.62;69.92;95049.53;4968193;28;20027;-75
2021/11/14 13:43:04;;;;;;;33.60;21.80;;;;;;;11.69;70.25;95047.03;4967901;28;20082;-75
2021/11/14 13:45:34;;;;;;;31.38;22.23;;;;;;;11.52;70.03;95046.34;4967806;28;20027;-76
2021/11/14 13:48:09;;;;;;;;;;;;;;;11.53;70.11;95040.97;4968340;28;20062;-75
2021/11/14 13:50:47;;;;;;;26.40;20.48;;;;;;;11.47;69.98;95038.25;4968784;28;20269;-75
2021/11/14 13:53:16;;;;;;;22.40;18.42;;;;;;;11.40;69.46;95032.97;4966835;28;20034;-76
2021/11/14 13:55:55;;;;;;;27.00;19.97;;;;;;;11.39;69.86;95035.75;4952730;28;20097;-75
2021/11/14 13:58:21;;;;;;;22.02;19.38;;;;;;;11.26;70.08;95036.31;4968641;28;20036;-75
2021/11/14 14:00:47;;;;;;;25.02;20.27;;;;;;;11.20;70.07;95023.25;4966772;28;20546;-77
2021/11/14 14:03:20;;;;;;;24.25;20.08;;;;;;;11.09;70.04;95022.66;4952470;28;20039;-75
2021/11/14 14:05:47;;;;;;;22.25;19.95;;;;;;;11.05;70.62;95033.53;4967180;28;20077;-76
2021/11/14 14:08:12;;;;;;;27.33;20.50;;;;;;;10.93;70.48;95035.72;4970593;28;20034;-77
2021/11/14 14:10:38;;;;;;;23.48;19.92;;;;;;;10.87;71.39;95036.41;4966858;28;20023;-75
2021/11/14 14:13:03;;;;;;;26.25;20.35;;;;;;;10.78;71.21;95034.03;4953067;28;20038;-76
2021/11/14 14:15:40;;;;;;;29.60;20.42;;;;;;;10.67;71.82;95031.78;4950965;28;20109;-76
2021/11/14 14:18:11;;;;;;;28.70;20.67;;;;;;;10.52;72.18;95032.53;4968894;28;20113;-80
2021/11/14 14:20:37;;;;;;;24.30;19.70;;;;;;;10.42;73.25;95042.28;4951591;28;20415;-78
2021/11/14 14:23:03;;;;;;;22.55;19.48;;;;;;;10.38;73.31;95050.53;4950803;28;20117;-77
2021/11/14 14:25:39;;;;;;;26.08;21.13;;;;;;;10.23;74.20;95044.44;4951760;28;20030;-77
2021/11/14 14:28:16;;;;;;;23.95;19.98;;;;;;;9.93;74.93;95017.47;4951264;28;20046;-75
2021/11/14 14:30:43;;;;;;;25.95;21.52;;;;;;;10.02;75.45;95039.75;4970485;28;20042;-76
2021/11/14 14:33:17;;;;;;;25.10;21.08;;;;;;;9.93;75.85;95044.13;4951561;28;20022;-75
2021/11/14 14:35:50;;;;;;;27.50;21.27;;;;;;;9.75;76.70;95045.31;4967920;28;20089;-76
2021/11/14 14:38:20;;;;;;;27.27;22.45;;;;;;;9.73;76.85;95050.63;4967887;28;20050;-75
2021/11/14 14:41:13;;;;;;;25.27;20.65;;;;;;;9.57;77.34;95048.03;4967538;28;20516;-76
2021/11/14 14:43:47;;;;;;;27.38;21.98;;;;;;;9.52;77.71;95053.72;4959296;28;20511;-75
2021/11/14 14:46:36;;;;;;;31.02;22.27;;;;;;;9.42;78.15;95054.84;4965981;28;20393;-80
2021/11/14 14:49:12;;;;;;;29.45;22.75;;;;;;;9.24;78.96;95055.00;4963269;28;20050;-79
2021/11/14 14:51:44;;;;;;;30.73;23.00;;;;;;;9.21;79.58;95049.34;4950755;28;20409;-76
2021/11/14 14:54:14;;;;;;;36.05;24.58;;;;;;;9.13;79.53;95054.47;4969350;28;20030;-78
2021/11/14 14:56:42;;;;;;;32.05;24.55;;;;;;;8.91;80.86;95071.41;4968950;28;20404;-78
2021/11/14 14:59:18;;;;;;;35.05;26.33;;;;;;;8.90;80.73;95065.41;4949355;28;20065;-76
2021/11/14 15:01:47;;;;;;;35.15;26.08;;;;;;;8.91;80.88;95069.63;4952354;28;20043;-79
2021/11/14 15:04:21;;;;;;;34.05;24.30;;;;;;;8.72;81.85;95077.63;4981161;28;20042;-77
2021/11/14 15:07:02;;;;;;;33.25;24.63;;;;;;;8.68;81.86;95070.34;4969222;28;20205;-77
2021/11/14 15:09:35;;;;;;;37.88;27.35;;;;;;;8.62;82.22;95066.63;4951773;28;20053;-76
2021/11/14 15:12:20;;;;;;;35.92;25.98;;;;;;;8.42;83.37;95062.66;4964723;28;20022;-77
2021/11/14 15:14:56;;;;;;;33.22;25.50;;;;;;;8.50;83.11;95069.63;4952273;28;20027;-77
2021/11/14 15:17:35;;;;;;;35.00;26.23;;;;;;;8.40;83.35;95062.03;4949233;28;20424;-77
2021/11/14 15:20:05;;;;;;;36.13;26.60;;;;;;;8.35;83.54;95071.97;4952719;28;20042;-78
2021/11/14 15:22:36;;;;;;;37.30;25.58;;;;;;;8.23;84.09;95084.31;4967442;28;20485;-78
2021/11/14 15:25:09;;;;;;;33.45;23.63;;;;;;;8.21;83.89;95083.66;4950356;28;20042;-79
2021/11/14 15:27:35;;;;;;;34.05;24.63;;;;;;;8.26;83.88;95090.94;4970183;28;20031;-78
2021/11/14 15:30:00;;;;;;;35.60;25.15;;;;;;;8.19;83.84;95095.88;4966148;28;20085;-77
2021/11/14 15:32:26;;;;;;;38.67;25.95;;;;;;;8.17;83.94;95089.28;4968944;28;20058;-77
2021/11/14 15:34:51;;;;;;;37.30;27.08;;;;;;;8.12;83.87;95099.25;4952231;28;20574;-77
2021/11/14 15:37:17;;;;;;;37.17;26.92;;;;;;;8.07;84.28;95098.88;4970147;28;20023;-80
2021/11/14 15:39:42;;;;;;;40.25;27.55;;;;;;;7.99;84.53;95091.09;4948984;28;20023;-78
2021/11/14 15:42:08;;;;;;;38.85;28.13;;;;;;;7.91;85.21;95104.75;4950854;28;20126;-78
2021/11/14 15:44:33;;;;;;;37.45;27.27;;;;;;;7.79;85.59;95117.06;4965125;28;20031;-78
2021/11/14 15:46:59;;;;;;;50.30;29.02;;;;;;;7.76;85.90;95114.81;4950499;28;20031;-77
2021/11/14 15:49:25;;;;;;;40.03;27.40;;;;;;;7.74;86.35;95115.88;4966466;28;20027;-77
2021/11/14 15:51:50;;;;;;;41.03;27.98;;;;;;;7.47;86.70;95085.88;4965132;28;20046;-76
2021/11/14 15:54:16;;;;;;;40.10;28.85;;;;;;;7.67;87.00;95107.16;4966937;28;20081;-77
2021/11/14 15:56:41;;;;;;;36.17;26.55;;;;;;;7.67;86.65;95105.38;4948778;28;20097;-77
2021/11/14 15:59:06;;;;;;;38.33;25.63;;;;;;;7.62;86.95;95114.50;4951742;28;20090;-76
2021/11/14 16:01:32;;;;;;;39.20;28.08;;;;;;;7.65;87.23;95109.06;4963330;28;20519;-77
2021/11/14 16:03:59;;;;;;;37.55;28.42;;;;;;;7.66;87.16;95101.19;4949426;28;20045;-77
2021/11/14 16:06:24;;;;;;;40.30;30.58;;;;;;;7.61;87.63;95107.75;4949427;28;20397;-77
2021/11/14 16:08:50;;;;;;;39.63;28.42;;;;;;;7.60;87.91;95117.25;4949126;28;20101;-77
2021/11/14 16:11:15;;;;;;;38.28;28.05;;;;;;;7.49;88.78;95132.09;4964941;28;20476;-77
2021/11/14 16:13:42;;;;;;;43.13;29.13;;;;;;;7.28;89.75;95137.56;4964672;28;20038;-77
2021/11/14 16:16:08;;;;;;;36.33;26.20;;;;;;;7.11;90.60;95136.56;4965844;28;20027;-78
2021/11/14 16:18:33;;;;;;;35.83;26.35;;;;;;;7.07;90.98;95140.38;4963427;28;20044;-77
2021/11/14 16:20:59;;;;;;;34.40;25.90;;;;;;;7.17;90.87;95130.84;4968064;28;20030;-76
2021/11/14 16:23:24;;;;;;;36.75;26.95;;;;;;;6.96;91.75;95129.50;4965318;28;20089;-76
2021/11/14 16:25:50;;;;;;;34.10;25.20;;;;;;;6.99;92.45;95134.34;4952475;28;20061;-76
2021/11/14 16:28:15;;;;;;;37.78;24.77;;;;;;;6.86;92.64;95139.84;4951730;28;20023;-77